Anchorage, AK

12:04 AM AKDT on August 29, 2015 (GMT -0800)
APRSWXNET | | Change Station
CLOSE
Current Station
Personal Weather Station
Location: Anchorage, AK
Elevation: 2194 ft
Nearby Weather Stations

Elev 2194 ft 61.10 °N, 149.69 °W | Updated 26 minutes ago

Partly Cloudy
Partly Cloudy
39.0 °F
Feels Like 33 °F
N
8.0
Wind Variable Wind from NE
Gusts 14.0 mph

Today
High -- | Low -- °F
--% Chance of Precip.
Yesterday
High -- | Low -- °F
Precip. -- in
6:43 AM 9:14 PM
Full, 100% visible
Pressure 29.63 in
Visibility 10.0 miles
Clouds Few 20000 ft
Windchill 33 °F
Dew Point 30.0 °F
Humidity 70%
Rainfall in
Snow Depth Not available.
UV 0 out of 12
Pollen Not available.
Air Quality Not available.
Flu Activity Not available.
METAR PAMR 290753Z 35007KT 10SM FEW200 11/M01 A2963 RMK AO2 SLP034 T01061006
Pressure 29.63 in
Visibility 10.0 miles
Clouds Few 20000 ft
Windchill 33 °F
Dew Point 30.0 °F
Humidity 70%
Rainfall in
Snow Depth Not available.
UV 0 out of 12
Pollen Not available.
Air Quality Not available.
Flu Activity Not available.
METAR PAMR 290753Z 35007KT 10SM FEW200 11/M01 A2963 RMK AO2 SLP034 T01061006

10-Day Weather Forecast

×

Almanac

Astronomy

Aug. 29, 2015 Rise Set
Actual Time
Civil Twilight
Nautical Twilight
Astronomical Twilight
Moon
Length of Visible Light
Length of Day
Tomorrow will be .
, % of the Moon is Illuminated

Today's Extremes

State Highs State Lows

Community

WunderPhotos

Upload Photos

1,850,634 photos uploaded!

WunderBlogs® & News

Nearby

Air Quality

  Air Quality AQ Index Pollutant
Not available.

Snow Depth

Station Depth Elevation

Earthquake Activity

City Distance Mag. Time & Date
Minimum magnitude displayed is 2.5.

Coastal Water Temperatures

Place Temperature

Stations

Nearby Weather Stations

Station Location Temp. Windchill Dew Point Humidity Wind Precip. Elev Updated Type